Terminal Aerodrome Forecast
Issued by NWS

Home | Current Version | Previous Version | Text Only | Print | Product List | Glossary On
Versions: 1 2 3 4 5 6 7 8 9 10 11 12 13 14 15 16 17 18 19
000
FTUS41 KILN 172339
TAFLUK
TAF
KLUK 172339Z 1800/1824 16009KT P6SM SCT200
     FM180500 19010G18KT P6SM -SHRA OVC060 WS020/20045KT
     FM180800 20015G27KT 5SM -SHRA BR OVC015
     FM181100 20018G30KT P6SM VCSH OVC015
     FM182000 22018G28KT 5SM -SHRA OVC015
     FM182300 30022G30KT P6SM VCSH OVC018=

USA.gov is the U.S. government's official web portal to all federal, state and local government web resources and services.